createdAt,value
2023-05-17T00:02:22.450Z,101042.80
2023-05-17T00:04:51.603Z,101044.41
2023-05-17T00:07:20.249Z,101046.74
2023-05-17T00:09:48.578Z,101050.14
2023-05-17T00:12:17.278Z,101046.84
2023-05-17T00:14:45.776Z,101047.93
2023-05-17T00:17:14.224Z,101050.47
2023-05-17T00:19:42.796Z,101049.44
2023-05-17T00:22:11.420Z,101051.78
2023-05-17T00:24:39.938Z,101056.86
2023-05-17T00:27:08.637Z,101054.62
2023-05-17T00:29:37.035Z,101059.33
2023-05-17T00:32:06.357Z,101054.58
2023-05-17T00:34:34.797Z,101055.59
2023-05-17T00:37:03.755Z,101057.14
2023-05-17T00:39:32.305Z,101058.73
2023-05-17T00:42:01.715Z,101059.09
2023-05-17T00:44:30.117Z,101061.19
2023-05-17T00:47:00.126Z,101060.15
2023-05-17T00:49:28.917Z,101062.58
2023-05-17T00:52:00.797Z,101061.14
2023-05-17T00:54:29.557Z,101058.12
2023-05-17T00:57:01.200Z,101061.54
2023-05-17T00:59:31.000Z,101061.16
2023-05-17T01:02:01.216Z,101059.75
2023-05-17T01:04:30.185Z,101066.44
2023-05-17T01:06:59.235Z,101060.32
2023-05-17T01:09:27.899Z,101057.72
2023-05-17T01:11:56.437Z,101059.69
2023-05-17T01:14:52.502Z,101058.29
2023-05-17T01:17:58.614Z,101058.99
2023-05-17T01:20:44.000Z,101054.52
2023-05-17T01:23:34.745Z,101059.86
2023-05-17T01:26:17.775Z,101057.42
2023-05-17T01:28:49.935Z,101059.57
2023-05-17T01:31:20.747Z,101052.04
2023-05-17T01:33:49.334Z,101054.16
2023-05-17T01:36:18.047Z,101057.64
2023-05-17T01:38:46.518Z,101053.55
2023-05-17T01:41:25.278Z,101055.81
2023-05-17T01:44:21.072Z,101054.92
2023-05-17T01:46:53.020Z,101050.36
2023-05-17T01:49:28.473Z,101052.46
2023-05-17T01:52:04.635Z,101052.77
2023-05-17T01:54:54.419Z,101049.27
2023-05-17T01:57:29.857Z,101049.62
2023-05-17T02:00:02.554Z,101050.80
2023-05-17T02:02:31.220Z,101050.73
2023-05-17T02:04:59.865Z,101052.10
2023-05-17T02:07:28.281Z,101050.81
2023-05-17T02:09:57.384Z,101049.03
2023-05-17T02:12:25.873Z,101051.77
2023-05-17T02:14:54.238Z,101052.23
2023-05-17T02:17:23.351Z,101051.33
2023-05-17T02:19:52.137Z,101053.69
2023-05-17T02:22:20.807Z,101055.05
2023-05-17T02:24:49.641Z,101052.89
2023-05-17T02:27:18.186Z,101053.17
2023-05-17T02:29:46.770Z,101056.45
2023-05-17T02:32:15.011Z,101057.28
2023-05-17T02:34:43.414Z,101055.63
2023-05-17T02:37:12.007Z,101053.67
2023-05-17T02:39:40.617Z,101055.38
2023-05-17T02:42:09.167Z,101056.92
2023-05-17T02:44:37.852Z,101054.22
2023-05-17T02:47:06.638Z,101060.27
2023-05-17T02:49:37.030Z,101063.70
2023-05-17T02:52:06.153Z,101061.95
2023-05-17T02:54:35.299Z,101065.23
2023-05-17T02:57:04.772Z,101066.27
2023-05-17T02:59:33.239Z,101068.66
2023-05-17T03:02:01.732Z,101073.00
2023-05-17T03:04:30.237Z,101071.95
2023-05-17T03:06:58.901Z,101073.31
2023-05-17T03:09:30.543Z,101079.38
2023-05-17T03:11:59.448Z,101083.44
2023-05-17T03:14:32.229Z,101086.29
2023-05-17T03:17:00.972Z,101090.04
2023-05-17T03:19:29.853Z,101092.37
2023-05-17T03:21:58.829Z,101088.23
2023-05-17T03:24:27.582Z,101095.65
2023-05-17T03:26:56.174Z,101099.77
2023-05-17T03:29:25.249Z,101100.76
2023-05-17T03:31:54.076Z,101105.41
2023-05-17T03:34:22.858Z,101106.08
2023-05-17T03:36:51.520Z,101108.83
2023-05-17T03:39:19.890Z,101113.88
2023-05-17T03:41:48.802Z,101116.46
2023-05-17T03:44:19.931Z,101119.53
2023-05-17T03:46:49.791Z,101121.05
2023-05-17T03:49:19.542Z,101122.66
2023-05-17T03:51:49.784Z,101119.38
2023-05-17T03:54:20.515Z,101116.98
2023-05-17T03:56:50.709Z,101116.52
2023-05-17T03:59:20.030Z,101112.05
2023-05-17T04:01:48.966Z,101111.06
2023-05-17T04:04:17.569Z,101108.98
2023-05-17T04:06:46.297Z,101107.30
2023-05-17T04:09:15.705Z,101108.38
2023-05-17T04:11:44.225Z,101108.61
2023-05-17T04:14:13.173Z,101107.45
2023-05-17T04:16:41.803Z,101106.10
2023-05-17T04:19:11.145Z,101110.02
2023-05-17T04:21:41.174Z,101111.97
2023-05-17T04:24:10.016Z,101111.86
2023-05-17T04:26:38.983Z,101113.89
2023-05-17T04:29:07.745Z,101116.89
2023-05-17T04:31:36.150Z,101116.73
2023-05-17T04:34:05.638Z,101120.66
2023-05-17T04:36:34.519Z,101120.23
2023-05-17T04:39:03.955Z,101121.58
2023-05-17T04:41:35.418Z,101124.61
2023-05-17T04:44:06.121Z,101127.37
2023-05-17T04:46:36.116Z,101133.48
2023-05-17T04:49:05.008Z,101137.17
2023-05-17T04:51:33.895Z,101144.58
2023-05-17T04:54:03.548Z,101150.15
2023-05-17T04:56:32.846Z,101152.22
2023-05-17T04:59:03.147Z,101157.08
2023-05-17T05:01:31.606Z,101159.40
2023-05-17T05:04:00.625Z,101156.75
2023-05-17T05:06:30.329Z,101157.05
2023-05-17T05:08:59.001Z,101159.49
2023-05-17T05:11:28.049Z,101158.12
2023-05-17T05:13:57.104Z,101155.98
2023-05-17T05:16:26.587Z,101153.98
2023-05-17T05:18:55.110Z,101158.98
2023-05-17T05:21:24.266Z,101156.01
2023-05-17T05:23:53.880Z,101159.52
2023-05-17T05:26:23.924Z,101158.05
2023-05-17T05:28:54.627Z,101156.04
2023-05-17T05:31:23.127Z,101154.20
2023-05-17T05:33:53.454Z,101152.36
2023-05-17T05:36:22.221Z,101151.25
2023-05-17T05:38:54.183Z,101155.72
2023-05-17T05:41:23.065Z,101157.54
2023-05-17T05:43:51.971Z,101153.86
2023-05-17T05:46:21.067Z,101153.16
2023-05-17T05:48:50.924Z,101155.60
2023-05-17T05:51:21.371Z,101150.55
2023-05-17T05:53:52.546Z,101153.52
2023-05-17T05:56:21.443Z,101153.38
2023-05-17T05:58:49.922Z,101154.17
2023-05-17T06:01:18.603Z,101160.20
2023-05-17T06:03:47.232Z,101161.63
2023-05-17T06:06:18.820Z,101159.98
2023-05-17T06:08:49.814Z,101164.33
2023-05-17T06:11:20.578Z,101162.54
2023-05-17T06:13:48.916Z,101167.71
2023-05-17T06:16:17.185Z,101171.17
2023-05-17T06:18:46.968Z,101171.61
2023-05-17T06:21:18.683Z,101169.79
2023-05-17T06:23:46.996Z,101173.60
2023-05-17T06:26:15.429Z,101173.67
2023-05-17T06:28:43.950Z,101174.27
2023-05-17T06:31:12.726Z,101175.23
2023-05-17T06:33:42.322Z,101174.56
2023-05-17T06:36:10.757Z,101176.23
2023-05-17T06:38:39.231Z,101180.66
2023-05-17T06:41:07.823Z,101180.45
2023-05-17T06:43:37.723Z,101182.73
2023-05-17T06:46:06.826Z,101188.83
2023-05-17T06:48:35.249Z,101188.08
2023-05-17T06:51:03.918Z,101193.39
2023-05-17T06:53:32.567Z,101196.38
2023-05-17T06:56:01.102Z,101199.30
2023-05-17T06:58:29.755Z,101197.75
2023-05-17T07:00:58.730Z,101200.48
2023-05-17T07:03:27.541Z,101206.14
2023-05-17T07:05:57.558Z,101201.73
2023-05-17T07:08:26.485Z,101203.17
2023-05-17T07:10:55.126Z,101202.84
2023-05-17T07:13:23.713Z,101203.71
2023-05-17T07:15:52.279Z,101201.85
2023-05-17T07:18:23.279Z,101202.96
2023-05-17T07:20:54.533Z,101204.02
2023-05-17T07:23:23.156Z,101203.61
2023-05-17T07:25:51.631Z,101202.98
2023-05-17T07:28:20.073Z,101204.14
2023-05-17T07:30:48.696Z,101201.64
2023-05-17T07:33:17.514Z,101206.73
2023-05-17T07:35:46.059Z,101201.92
2023-05-17T07:38:14.645Z,101201.63
2023-05-17T07:40:43.233Z,101203.34
2023-05-17T07:43:11.929Z,101202.54
2023-05-17T07:45:40.707Z,101206.11
2023-05-17T07:48:09.714Z,101205.45
2023-05-17T07:50:38.130Z,101207.58
2023-05-17T07:53:06.556Z,101208.80
2023-05-17T07:55:38.061Z,101208.35
2023-05-17T07:58:06.433Z,101207.70
2023-05-17T08:04:07.203Z,101209.15
2023-05-17T08:06:35.893Z,101208.86
2023-05-17T08:09:04.939Z,101209.41
2023-05-17T08:11:35.402Z,101207.50
2023-05-17T08:14:04.148Z,101209.50
2023-05-17T08:16:32.734Z,101206.14
2023-05-17T08:19:01.407Z,101209.02
2023-05-17T08:21:30.322Z,101207.48
2023-05-17T08:23:58.754Z,101210.41
2023-05-17T08:26:27.683Z,101210.09
2023-05-17T08:28:56.565Z,101208.36
2023-05-17T08:31:24.952Z,101204.65
2023-05-17T08:33:53.905Z,101212.16
2023-05-17T08:36:23.034Z,101208.58
2023-05-17T08:38:53.144Z,101205.34
2023-05-17T08:45:01.481Z,101207.80
2023-05-17T08:47:34.296Z,101207.55
2023-05-17T08:50:05.740Z,101203.38
2023-05-17T08:52:36.364Z,101201.55
2023-05-17T08:55:06.350Z,101199.83
2023-05-17T08:57:38.908Z,101198.28
2023-05-17T09:00:13.676Z,101196.01
2023-05-17T09:02:43.139Z,101196.66
2023-05-17T09:05:13.894Z,101194.10
2023-05-17T09:07:43.194Z,101193.92
2023-05-17T09:10:13.881Z,101190.75
2023-05-17T09:12:42.630Z,101195.39
2023-05-17T09:15:15.543Z,101192.50
2023-05-17T09:17:51.074Z,101190.33
2023-05-17T09:20:25.063Z,101190.83
2023-05-17T09:22:53.474Z,101188.30
2023-05-17T09:25:24.557Z,101188.11
2023-05-17T09:28:01.125Z,101188.48
2023-05-17T09:30:34.743Z,101188.44
2023-05-17T09:33:08.611Z,101195.38
2023-05-17T09:35:38.702Z,101193.52
2023-05-17T09:38:12.905Z,101189.46
2023-05-17T09:40:43.607Z,101193.21
2023-05-17T09:43:12.934Z,101189.50
2023-05-17T09:45:41.626Z,101189.12
2023-05-17T09:48:18.234Z,101184.87
2023-05-17T09:50:51.219Z,101184.88
2023-05-17T09:53:31.112Z,101182.03
2023-05-17T09:56:05.852Z,101177.10
2023-05-17T09:58:36.681Z,101179.54
2023-05-17T10:01:07.123Z,101175.55
2023-05-17T10:03:37.450Z,101173.85
2023-05-17T10:06:09.856Z,101168.24
2023-05-17T10:08:47.562Z,101164.88
2023-05-17T10:11:18.597Z,101167.22
2023-05-17T10:13:54.769Z,101166.39
2023-05-17T10:16:24.238Z,101163.70
2023-05-17T10:18:54.113Z,101164.80
2023-05-17T10:21:23.227Z,101158.70
2023-05-17T10:23:53.091Z,101156.70
2023-05-17T10:26:22.516Z,101160.64
2023-05-17T10:28:53.607Z,101161.92
2023-05-17T10:31:23.534Z,101163.84
2023-05-17T10:33:53.400Z,101158.59
2023-05-17T10:36:24.661Z,101160.59
2023-05-17T10:38:53.891Z,101159.11
2023-05-17T10:41:25.970Z,101155.39
2023-05-17T10:43:56.158Z,101156.01
2023-05-17T10:46:25.176Z,101151.73
2023-05-17T10:48:57.854Z,101154.67
2023-05-17T10:51:34.533Z,101153.86
2023-05-17T10:54:02.805Z,101154.86
2023-05-17T10:56:32.384Z,101156.06
2023-05-17T10:59:34.190Z,101153.02
2023-05-17T11:02:09.443Z,101146.90
2023-05-17T11:04:45.772Z,101146.58
2023-05-17T11:07:17.458Z,101146.58
2023-05-17T11:09:49.799Z,101147.80
2023-05-17T11:12:33.599Z,101146.50
2023-05-17T11:15:14.363Z,101149.30
2023-05-17T11:17:54.982Z,101149.91
2023-05-17T11:20:27.666Z,101149.97
2023-05-17T11:22:59.212Z,101150.46
2023-05-17T11:25:36.471Z,101144.90
2023-05-17T11:28:27.473Z,101144.23
2023-05-17T11:31:01.376Z,101140.35
2023-05-17T11:33:43.300Z,101134.53
2023-05-17T11:36:19.757Z,101132.86
2023-05-17T11:39:11.167Z,101129.70
2023-05-17T11:41:45.478Z,101128.45
2023-05-17T11:44:14.307Z,101124.80
2023-05-17T11:46:43.531Z,101126.15
2023-05-17T11:49:20.307Z,101124.83
2023-05-17T11:51:56.623Z,101123.79
2023-05-17T11:58:12.519Z,101118.44
2023-05-17T12:00:42.531Z,101111.95
2023-05-17T12:03:26.487Z,101108.88
2023-05-17T12:06:16.286Z,101107.70
2023-05-17T12:08:47.222Z,101104.52
2023-05-17T12:11:20.115Z,101102.47
2023-05-17T12:13:49.304Z,101100.91
2023-05-17T12:16:22.581Z,101103.21
2023-05-17T12:18:52.304Z,101096.69
2023-05-17T12:21:22.122Z,101090.70
2023-05-17T12:23:54.195Z,101089.55
2023-05-17T12:26:25.229Z,101092.14
2023-05-17T12:29:00.038Z,101089.64
2023-05-17T12:31:34.880Z,101081.45
2023-05-17T12:34:06.243Z,101080.77
2023-05-17T12:36:40.891Z,101075.63
2023-05-17T12:39:12.576Z,101069.33
2023-05-17T12:41:42.508Z,101067.20
2023-05-17T12:44:15.945Z,101062.33
2023-05-17T12:46:48.369Z,101059.69
2023-05-17T12:49:17.551Z,101055.38
2023-05-17T12:51:47.838Z,101053.27
2023-05-17T12:54:30.797Z,101050.23
2023-05-17T12:56:59.406Z,101049.21
2023-05-17T12:59:29.568Z,101050.41
2023-05-17T13:02:00.909Z,101051.52
2023-05-17T13:04:36.941Z,101047.80
2023-05-17T13:07:06.640Z,101042.89
2023-05-17T13:09:47.290Z,101040.67
2023-05-17T13:12:22.057Z,101038.60
2023-05-17T13:14:53.628Z,101039.10
2023-05-17T13:17:22.268Z,101037.31
2023-05-17T13:19:51.520Z,101035.63
2023-05-17T13:22:20.175Z,101036.45
2023-05-17T13:24:51.769Z,101038.19
2023-05-17T13:27:20.815Z,101040.45
2023-05-17T13:29:49.802Z,101038.45
2023-05-17T13:32:19.522Z,101036.30
2023-05-17T13:34:48.191Z,101035.45
2023-05-17T13:37:17.099Z,101036.33
2023-05-17T13:39:45.868Z,101039.96
2023-05-17T13:42:15.066Z,101037.62
2023-05-17T13:44:43.787Z,101038.11
2023-05-17T13:47:12.663Z,101039.95
2023-05-17T13:49:41.873Z,101040.85
2023-05-17T13:52:13.122Z,101034.67
2023-05-17T13:54:41.794Z,101039.20
2023-05-17T13:57:10.465Z,101039.91
2023-05-17T13:59:39.947Z,101040.64
2023-05-17T14:02:09.922Z,101042.77
2023-05-17T14:04:38.783Z,101041.30
2023-05-17T14:07:07.468Z,101040.27
2023-05-17T14:09:37.371Z,101037.53
2023-05-17T14:12:06.307Z,101038.85
2023-05-17T14:14:35.063Z,101035.55
2023-05-17T14:17:04.369Z,101035.45
2023-05-17T14:19:33.186Z,101029.88
2023-05-17T14:22:02.367Z,101027.55
2023-05-17T14:24:31.336Z,101027.30
2023-05-17T14:27:00.032Z,101026.70
2023-05-17T14:29:30.578Z,101025.50
2023-05-17T14:31:59.330Z,101025.64
2023-05-17T14:34:28.066Z,101022.02
2023-05-17T14:36:58.040Z,101023.64
2023-05-17T14:39:26.816Z,101022.05
2023-05-17T14:41:55.856Z,101017.96
2023-05-17T14:44:24.403Z,101014.55
2023-05-17T14:46:53.093Z,101013.73
2023-05-17T14:49:22.342Z,101008.91
2023-05-17T14:51:51.393Z,101007.97
2023-05-17T14:54:20.675Z,101005.27
2023-05-17T14:56:49.586Z,101004.22
2023-05-17T14:59:18.481Z,101007.79
2023-05-17T15:01:47.042Z,101010.27
2023-05-17T15:04:19.316Z,101007.80
2023-05-17T15:06:48.228Z,101004.02
2023-05-17T15:09:18.641Z,101004.48
2023-05-17T15:11:47.520Z,101003.07
2023-05-17T15:14:22.548Z,101005.04
2023-05-17T15:16:53.029Z,101005.11
2023-05-17T15:19:22.779Z,101003.19
2023-05-17T15:22:17.497Z,100999.95
2023-05-17T15:24:46.271Z,101002.27
2023-05-17T15:27:16.732Z,101002.63
2023-05-17T15:29:45.696Z,101002.86
2023-05-17T15:32:14.712Z,101003.75
2023-05-17T15:34:43.215Z,101008.91
2023-05-17T15:37:12.037Z,101005.00
2023-05-17T15:39:40.742Z,101003.20
2023-05-17T15:42:09.268Z,101001.65
2023-05-17T15:44:37.758Z,100999.83
2023-05-17T15:47:06.140Z,100999.95
2023-05-17T15:49:35.274Z,101001.23
2023-05-17T15:52:03.949Z,100997.16
2023-05-17T15:54:32.271Z,100995.53
2023-05-17T15:57:01.105Z,100994.08
2023-05-17T15:59:30.710Z,100995.44
2023-05-17T16:01:59.161Z,100994.61
2023-05-17T16:04:27.692Z,100990.48
2023-05-17T16:06:56.151Z,100993.24
2023-05-17T16:09:24.506Z,100995.52
2023-05-17T16:11:52.881Z,100994.48
2023-05-17T16:14:21.233Z,100997.67
2023-05-17T16:16:49.620Z,100998.52
2023-05-17T16:19:19.392Z,100999.02
2023-05-17T16:21:50.500Z,100993.03
2023-05-17T16:24:19.756Z,100997.82
2023-05-17T16:26:48.113Z,100997.80
2023-05-17T16:29:18.731Z,101001.13
2023-05-17T16:31:48.917Z,101000.89
2023-05-17T16:34:17.492Z,101002.00
2023-05-17T16:36:48.017Z,101002.13
2023-05-17T16:39:16.370Z,101001.52
2023-05-17T16:41:44.823Z,101001.41
2023-05-17T16:44:13.313Z,101000.04
2023-05-17T16:46:41.654Z,100998.73
2023-05-17T16:49:10.030Z,101001.02
2023-05-17T16:51:38.577Z,101003.14
2023-05-17T16:54:07.305Z,101003.08
2023-05-17T16:56:36.031Z,101005.02
2023-05-17T16:59:04.440Z,101009.16
2023-05-17T17:01:33.180Z,101009.81
2023-05-17T17:04:03.826Z,101008.43
2023-05-17T17:06:34.035Z,101009.79
2023-05-17T17:09:07.763Z,101008.80
2023-05-17T17:11:36.737Z,101008.23
2023-05-17T17:14:05.790Z,101011.36
2023-05-17T17:16:34.207Z,101009.95
2023-05-17T17:19:02.778Z,101011.31
2023-05-17T17:21:36.539Z,101013.91
2023-05-17T17:24:06.328Z,101015.48
2023-05-17T17:26:35.621Z,101017.48
2023-05-17T17:29:04.931Z,101019.88
2023-05-17T17:31:33.418Z,101018.19
2023-05-17T17:34:01.903Z,101019.67
2023-05-17T17:36:30.648Z,101019.73
2023-05-17T17:38:59.200Z,101022.58
2023-05-17T17:41:27.612Z,101025.92
2023-05-17T17:43:56.148Z,101027.17
2023-05-17T17:46:25.900Z,101028.55
2023-05-17T17:48:56.566Z,101030.98
2023-05-17T17:51:25.207Z,101029.70
2023-05-17T17:53:54.357Z,101031.40
2023-05-17T17:56:24.080Z,101029.05
2023-05-17T17:58:56.194Z,101032.33
2023-05-17T18:01:25.725Z,101032.29
2023-05-17T18:03:54.283Z,101030.46
2023-05-17T18:06:23.531Z,101031.80
2023-05-17T18:08:51.843Z,101031.02
2023-05-17T18:11:20.199Z,101036.21
2023-05-17T18:13:48.616Z,101035.93
2023-05-17T18:16:17.105Z,101035.35
2023-05-17T18:18:45.684Z,101044.23
2023-05-17T18:21:14.814Z,101048.84
2023-05-17T18:23:43.142Z,101050.80
2023-05-17T18:26:11.489Z,101054.56
2023-05-17T18:28:42.823Z,101056.02
2023-05-17T18:31:12.056Z,101056.01
2023-05-17T18:33:40.591Z,101053.02
2023-05-17T18:36:09.351Z,101056.92
2023-05-17T18:38:37.841Z,101059.45
2023-05-17T18:41:06.858Z,101060.05
2023-05-17T18:43:35.566Z,101058.34
2023-05-17T18:46:04.132Z,101059.29
2023-05-17T18:48:36.239Z,101057.17
2023-05-17T18:51:04.768Z,101058.76
2023-05-17T18:53:38.384Z,101058.73
2023-05-17T18:56:07.085Z,101057.81
2023-05-17T18:58:35.681Z,101063.05
2023-05-17T19:01:04.410Z,101062.48
2023-05-17T19:03:33.056Z,101060.85
2023-05-17T19:06:01.778Z,101061.83
2023-05-17T19:08:30.365Z,101061.61
2023-05-17T19:11:01.362Z,101062.94
2023-05-17T19:13:30.265Z,101059.31
2023-05-17T19:16:00.644Z,101062.89
2023-05-17T19:18:30.350Z,101064.53
2023-05-17T19:21:01.310Z,101066.00
2023-05-17T19:23:32.435Z,101067.91
2023-05-17T19:26:01.027Z,101069.27
2023-05-17T19:28:33.299Z,101068.54
2023-05-17T19:31:03.669Z,101074.11
2023-05-17T19:33:34.226Z,101072.42
2023-05-17T19:36:02.874Z,101072.97
2023-05-17T19:38:32.868Z,101071.42
2023-05-17T19:41:01.729Z,101072.33
2023-05-17T19:43:30.131Z,101069.38
2023-05-17T19:45:58.553Z,101075.60
2023-05-17T19:48:27.024Z,101074.66
2023-05-17T19:50:56.839Z,101075.29
2023-05-17T19:53:26.620Z,101076.25
2023-05-17T19:55:55.743Z,101073.48
2023-05-17T19:58:25.554Z,101068.02
2023-05-17T20:00:53.970Z,101069.61
2023-05-17T20:03:23.323Z,101068.89
2023-05-17T20:05:51.908Z,101069.64
2023-05-17T20:08:20.299Z,101073.07
2023-05-17T20:10:49.247Z,101069.96
2023-05-17T20:13:19.782Z,101072.46
2023-05-17T20:15:48.188Z,101073.95
2023-05-17T20:18:16.784Z,101075.09
2023-05-17T20:20:45.308Z,101076.89
2023-05-17T20:23:14.412Z,101076.98
2023-05-17T20:25:43.283Z,101079.15
2023-05-17T20:28:11.982Z,101080.95
2023-05-17T20:30:43.872Z,101079.89
2023-05-17T20:33:12.432Z,101083.47
2023-05-17T20:35:41.108Z,101081.90
2023-05-17T20:38:09.536Z,101087.95
2023-05-17T20:40:37.993Z,101083.11
2023-05-17T20:43:08.479Z,101083.89
2023-05-17T20:45:37.061Z,101084.70
2023-05-17T20:48:05.500Z,101084.59
2023-05-17T20:50:34.164Z,101083.94
2023-05-17T20:53:02.814Z,101083.99
2023-05-17T20:55:31.716Z,101086.33
2023-05-17T20:58:00.203Z,101087.05
2023-05-17T21:00:28.964Z,101093.95
2023-05-17T21:02:57.791Z,101091.33
2023-05-17T21:05:28.672Z,101090.30
2023-05-17T21:07:59.837Z,101093.85
2023-05-17T21:10:29.629Z,101094.90
2023-05-17T21:12:58.170Z,101095.95
2023-05-17T21:15:26.592Z,101096.85
2023-05-17T21:17:55.082Z,101097.95
2023-05-17T21:20:24.922Z,101102.58
2023-05-17T21:22:53.694Z,101105.64
2023-05-17T21:25:22.313Z,101107.08
2023-05-17T21:27:51.543Z,101108.02
2023-05-17T21:30:20.116Z,101107.20
2023-05-17T21:32:48.483Z,101109.55
2023-05-17T21:35:17.124Z,101108.86
2023-05-17T21:37:45.462Z,101109.02
2023-05-17T21:40:14.843Z,101110.06
2023-05-17T21:42:43.305Z,101108.66
2023-05-17T21:45:16.826Z,101113.23
2023-05-17T21:47:45.777Z,101111.89
2023-05-17T21:50:15.444Z,101109.96
2023-05-17T21:52:44.977Z,101110.35
2023-05-17T21:55:13.811Z,101107.21
2023-05-17T21:57:42.743Z,101105.16
2023-05-17T22:00:15.585Z,101106.98
2023-05-17T22:02:45.702Z,101106.89
2023-05-17T22:05:15.272Z,101112.23
2023-05-17T22:07:44.166Z,101117.45
2023-05-17T22:10:12.945Z,101122.98
2023-05-17T22:12:42.342Z,101125.14
2023-05-17T22:15:11.193Z,101128.02
2023-05-17T22:17:50.970Z,101128.30
